Terminal Aerodrome Forecast
Issued by NWS

Home | Current Version | Previous Version | Text Only | Print | Product List | Glossary Off
Versions: 1 2 3 4 5 6 7 8 9 10 11 12 13 14 15 16 17 18

913
FTUS43 KMPX 101502 AAA
TAFRWF
TAF AMD
KRWF 101502Z 1015/1112 04004KT 2SM -SN BR SCT015 OVC025
     FM101700 07005KT P6SM OVC035
     FM102300 07004KT P6SM OVC040
     FM110000 VRB02KT P6SM BKN050 OVC120=

USA.gov is the U.S. government's official web portal to all federal, state and local government web resources and services.